sensor_id;sensor_type;location;lat;lon;timestamp;temperature;humidity
56322;DHT22;42227;6.376;-10.782;2024-03-08T00:00:16;29.80;99.90
56322;DHT22;42227;6.376;-10.782;2024-03-08T00:02:46;29.80;99.90
56322;DHT22;42227;6.376;-10.782;2024-03-08T00:05:15;29.90;99.90
56322;DHT22;42227;6.376;-10.782;2024-03-08T00:07:43;29.90;99.90
56322;DHT22;42227;6.376;-10.782;2024-03-08T00:10:12;29.80;99.90
56322;DHT22;42227;6.376;-10.782;2024-03-08T00:12:44;30.00;99.90
56322;DHT22;42227;6.376;-10.782;2024-03-08T00:15:15;29.90;99.90
56322;DHT22;42227;6.376;-10.782;2024-03-08T00:17:47;29.90;99.90
56322;DHT22;42227;6.376;-10.782;2024-03-08T00:20:16;29.90;99.90
56322;DHT22;42227;6.376;-10.782;2024-03-08T00:22:45;29.80;99.90
56322;DHT22;42227;6.376;-10.782;2024-03-08T00:25:13;29.80;99.90
56322;DHT22;42227;6.376;-10.782;2024-03-08T00:27:42;29.70;99.90
56322;DHT22;42227;6.376;-10.782;2024-03-08T00:30:12;29.70;99.90
56322;DHT22;42227;6.376;-10.782;2024-03-08T00:32:41;29.70;99.90
56322;DHT22;42227;6.376;-10.782;2024-03-08T00:35:10;29.90;99.90
56322;DHT22;42227;6.376;-10.782;2024-03-08T00:37:38;29.90;99.90
56322;DHT22;42227;6.376;-10.782;2024-03-08T00:40:07;29.80;99.90
56322;DHT22;42227;6.376;-10.782;2024-03-08T00:42:36;29.70;99.90
56322;DHT22;42227;6.376;-10.782;2024-03-08T00:45:04;29.70;99.90
56322;DHT22;42227;6.376;-10.782;2024-03-08T00:47:33;29.30;99.90
56322;DHT22;42227;6.376;-10.782;2024-03-08T00:50:02;29.20;99.90
56322;DHT22;42227;6.376;-10.782;2024-03-08T00:52:30;29.00;99.90
56322;DHT22;42227;6.376;-10.782;2024-03-08T00:54:58;29.30;99.90
56322;DHT22;42227;6.376;-10.782;2024-03-08T00:57:27;29.50;99.90
56322;DHT22;42227;6.376;-10.782;2024-03-08T00:59:55;29.50;99.90
56322;DHT22;42227;6.376;-10.782;2024-03-08T01:02:24;29.50;99.90
56322;DHT22;42227;6.376;-10.782;2024-03-08T01:04:53;29.40;99.90
56322;DHT22;42227;6.376;-10.782;2024-03-08T01:07:21;29.40;99.90
56322;DHT22;42227;6.376;-10.782;2024-03-08T01:09:49;29.40;99.90
56322;DHT22;42227;6.376;-10.782;2024-03-08T01:12:19;29.50;99.90
56322;DHT22;42227;6.376;-10.782;2024-03-08T01:14:49;29.50;99.90
56322;DHT22;42227;6.376;-10.782;2024-03-08T01:17:17;29.50;99.90
56322;DHT22;42227;6.376;-10.782;2024-03-08T01:19:45;29.50;99.90
56322;DHT22;42227;6.376;-10.782;2024-03-08T01:22:14;29.50;99.90
56322;DHT22;42227;6.376;-10.782;2024-03-08T01:24:42;29.50;99.90
56322;DHT22;42227;6.376;-10.782;2024-03-08T01:27:11;29.50;99.90
56322;DHT22;42227;6.376;-10.782;2024-03-08T01:29:39;29.50;99.90
56322;DHT22;42227;6.376;-10.782;2024-03-08T01:32:08;29.50;99.90
56322;DHT22;42227;6.376;-10.782;2024-03-08T01:34:37;29.50;99.90
56322;DHT22;42227;6.376;-10.782;2024-03-08T01:37:05;29.50;99.90
56322;DHT22;42227;6.376;-10.782;2024-03-08T01:39:34;29.20;99.90
56322;DHT22;42227;6.376;-10.782;2024-03-08T01:42:02;29.00;99.90
56322;DHT22;42227;6.376;-10.782;2024-03-08T01:44:31;28.90;1.00
56322;DHT22;42227;6.376;-10.782;2024-03-08T01:46:59;29.10;1.00
56322;DHT22;42227;6.376;-10.782;2024-03-08T01:49:28;29.00;1.00
56322;DHT22;42227;6.376;-10.782;2024-03-08T01:51:56;29.20;1.00
56322;DHT22;42227;6.376;-10.782;2024-03-08T01:54:25;29.10;1.00
56322;DHT22;42227;6.376;-10.782;2024-03-08T01:56:57;29.00;1.00
56322;DHT22;42227;6.376;-10.782;2024-03-08T01:59:25;29.00;1.00
56322;DHT22;42227;6.376;-10.782;2024-03-08T02:01:55;29.00;1.00
56322;DHT22;42227;6.376;-10.782;2024-03-08T02:04:28;29.20;1.00
56322;DHT22;42227;6.376;-10.782;2024-03-08T02:06:57;29.20;1.00
56322;DHT22;42227;6.376;-10.782;2024-03-08T02:09:25;29.20;99.90
56322;DHT22;42227;6.376;-10.782;2024-03-08T02:11:55;29.20;99.90
56322;DHT22;42227;6.376;-10.782;2024-03-08T02:14:29;29.10;99.90
56322;DHT22;42227;6.376;-10.782;2024-03-08T02:17:02;29.10;99.90
56322;DHT22;42227;6.376;-10.782;2024-03-08T02:19:31;29.20;99.90
56322;DHT22;42227;6.376;-10.782;2024-03-08T02:21:59;29.30;99.90
56322;DHT22;42227;6.376;-10.782;2024-03-08T02:24:28;29.30;99.90
56322;DHT22;42227;6.376;-10.782;2024-03-08T02:26:56;29.30;99.90
56322;DHT22;42227;6.376;-10.782;2024-03-08T02:29:25;29.30;99.90
56322;DHT22;42227;6.376;-10.782;2024-03-08T02:31:53;29.40;99.90
56322;DHT22;42227;6.376;-10.782;2024-03-08T02:34:23;29.50;99.90
56322;DHT22;42227;6.376;-10.782;2024-03-08T02:36:52;29.40;99.90
56322;DHT22;42227;6.376;-10.782;2024-03-08T02:39:20;29.40;99.90
56322;DHT22;42227;6.376;-10.782;2024-03-08T02:41:49;29.20;99.90
56322;DHT22;42227;6.376;-10.782;2024-03-08T02:44:17;29.20;99.90
56322;DHT22;42227;6.376;-10.782;2024-03-08T02:46:46;29.20;99.90
56322;DHT22;42227;6.376;-10.782;2024-03-08T02:49:14;29.20;99.90
56322;DHT22;42227;6.376;-10.782;2024-03-08T02:51:43;29.30;99.90
56322;DHT22;42227;6.376;-10.782;2024-03-08T02:54:11;29.40;99.90
56322;DHT22;42227;6.376;-10.782;2024-03-08T02:56:39;29.40;99.90
56322;DHT22;42227;6.376;-10.782;2024-03-08T02:59:08;29.40;99.90
56322;DHT22;42227;6.376;-10.782;2024-03-08T03:01:36;29.60;99.90
56322;DHT22;42227;6.376;-10.782;2024-03-08T03:04:05;29.40;99.90
56322;DHT22;42227;6.376;-10.782;2024-03-08T03:06:33;29.40;99.90
56322;DHT22;42227;6.376;-10.782;2024-03-08T03:09:02;29.40;99.90
56322;DHT22;42227;6.376;-10.782;2024-03-08T03:11:30;29.30;99.90
56322;DHT22;42227;6.376;-10.782;2024-03-08T03:14:00;29.10;99.90
56322;DHT22;42227;6.376;-10.782;2024-03-08T03:16:29;29.00;1.00
56322;DHT22;42227;6.376;-10.782;2024-03-08T03:18:58;29.00;99.90
56322;DHT22;42227;6.376;-10.782;2024-03-08T03:21:28;29.10;99.90
56322;DHT22;42227;6.376;-10.782;2024-03-08T03:23:57;29.10;99.90
56322;DHT22;42227;6.376;-10.782;2024-03-08T03:26:26;29.20;99.90
56322;DHT22;42227;6.376;-10.782;2024-03-08T03:28:55;29.10;99.90
56322;DHT22;42227;6.376;-10.782;2024-03-08T03:31:23;28.90;99.90
56322;DHT22;42227;6.376;-10.782;2024-03-08T03:33:52;29.00;99.90
56322;DHT22;42227;6.376;-10.782;2024-03-08T03:36:20;29.10;99.90
56322;DHT22;42227;6.376;-10.782;2024-03-08T03:38:49;28.90;99.90
56322;DHT22;42227;6.376;-10.782;2024-03-08T03:41:18;28.90;99.90
56322;DHT22;42227;6.376;-10.782;2024-03-08T03:43:47;28.90;99.90
56322;DHT22;42227;6.376;-10.782;2024-03-08T03:46:16;29.10;99.90
56322;DHT22;42227;6.376;-10.782;2024-03-08T03:48:44;29.10;99.90
56322;DHT22;42227;6.376;-10.782;2024-03-08T03:51:13;29.10;99.90
56322;DHT22;42227;6.376;-10.782;2024-03-08T03:53:41;29.20;99.90
56322;DHT22;42227;6.376;-10.782;2024-03-08T03:56:10;29.00;99.90
56322;DHT22;42227;6.376;-10.782;2024-03-08T03:58:38;28.90;99.90
56322;DHT22;42227;6.376;-10.782;2024-03-08T04:01:06;28.80;99.90
56322;DHT22;42227;6.376;-10.782;2024-03-08T04:03:35;28.80;99.90
56322;DHT22;42227;6.376;-10.782;2024-03-08T04:06:06;28.80;99.90
56322;DHT22;42227;6.376;-10.782;2024-03-08T04:08:35;28.70;99.90
56322;DHT22;42227;6.376;-10.782;2024-03-08T04:11:04;28.70;99.90
56322;DHT22;42227;6.376;-10.782;2024-03-08T04:13:32;28.60;99.90
56322;DHT22;42227;6.376;-10.782;2024-03-08T04:16:00;28.70;99.90
56322;DHT22;42227;6.376;-10.782;2024-03-08T04:18:29;28.80;99.90
56322;DHT22;42227;6.376;-10.782;2024-03-08T04:20:57;28.90;99.90
56322;DHT22;42227;6.376;-10.782;2024-03-08T04:23:26;28.80;99.90
56322;DHT22;42227;6.376;-10.782;2024-03-08T04:25:54;28.80;99.90
56322;DHT22;42227;6.376;-10.782;2024-03-08T04:28:22;28.80;99.90
56322;DHT22;42227;6.376;-10.782;2024-03-08T04:30:51;28.70;99.90
56322;DHT22;42227;6.376;-10.782;2024-03-08T04:33:19;28.60;99.90
56322;DHT22;42227;6.376;-10.782;2024-03-08T04:35:47;28.60;99.90
56322;DHT22;42227;6.376;-10.782;2024-03-08T04:38:16;28.60;99.90
56322;DHT22;42227;6.376;-10.782;2024-03-08T04:40:44;28.50;99.90
56322;DHT22;42227;6.376;-10.782;2024-03-08T04:43:13;28.60;99.90
56322;DHT22;42227;6.376;-10.782;2024-03-08T04:45:41;28.70;99.90
56322;DHT22;42227;6.376;-10.782;2024-03-08T04:48:10;28.60;99.90
56322;DHT22;42227;6.376;-10.782;2024-03-08T04:50:38;28.60;99.90
56322;DHT22;42227;6.376;-10.782;2024-03-08T04:53:07;28.50;99.90
56322;DHT22;42227;6.376;-10.782;2024-03-08T04:55:35;28.50;99.90
56322;DHT22;42227;6.376;-10.782;2024-03-08T04:58:04;28.50;99.90
56322;DHT22;42227;6.376;-10.782;2024-03-08T05:00:32;28.50;99.90
56322;DHT22;42227;6.376;-10.782;2024-03-08T05:03:01;28.40;99.90
56322;DHT22;42227;6.376;-10.782;2024-03-08T05:05:29;28.40;99.90
56322;DHT22;42227;6.376;-10.782;2024-03-08T05:07:58;28.60;99.90
56322;DHT22;42227;6.376;-10.782;2024-03-08T05:10:26;28.60;99.90
56322;DHT22;42227;6.376;-10.782;2024-03-08T05:12:54;28.70;99.90
56322;DHT22;42227;6.376;-10.782;2024-03-08T05:15:24;28.80;99.90
56322;DHT22;42227;6.376;-10.782;2024-03-08T05:17:53;28.70;99.90
56322;DHT22;42227;6.376;-10.782;2024-03-08T05:20:21;28.70;99.90
56322;DHT22;42227;6.376;-10.782;2024-03-08T05:22:50;28.60;99.90
56322;DHT22;42227;6.376;-10.782;2024-03-08T05:25:18;28.60;99.90
56322;DHT22;42227;6.376;-10.782;2024-03-08T05:27:46;28.50;99.90
56322;DHT22;42227;6.376;-10.782;2024-03-08T05:30:15;28.50;99.90
56322;DHT22;42227;6.376;-10.782;2024-03-08T05:32:44;28.60;99.90
56322;DHT22;42227;6.376;-10.782;2024-03-08T05:35:12;28.50;99.90
56322;DHT22;42227;6.376;-10.782;2024-03-08T05:37:41;28.60;99.90
56322;DHT22;42227;6.376;-10.782;2024-03-08T05:40:10;28.50;99.90
56322;DHT22;42227;6.376;-10.782;2024-03-08T05:42:44;28.50;99.90
56322;DHT22;42227;6.376;-10.782;2024-03-08T05:45:12;28.40;99.90
56322;DHT22;42227;6.376;-10.782;2024-03-08T05:47:41;28.50;99.90
56322;DHT22;42227;6.376;-10.782;2024-03-08T05:50:10;28.40;99.90
56322;DHT22;42227;6.376;-10.782;2024-03-08T05:52:38;28.30;99.90
56322;DHT22;42227;6.376;-10.782;2024-03-08T05:55:07;28.30;99.90
56322;DHT22;42227;6.376;-10.782;2024-03-08T05:57:36;28.20;99.90
56322;DHT22;42227;6.376;-10.782;2024-03-08T06:00:04;28.30;99.90
56322;DHT22;42227;6.376;-10.782;2024-03-08T06:02:38;28.30;99.90
56322;DHT22;42227;6.376;-10.782;2024-03-08T06:05:09;28.30;99.90
56322;DHT22;42227;6.376;-10.782;2024-03-08T06:07:38;28.30;99.90
56322;DHT22;42227;6.376;-10.782;2024-03-08T06:10:08;28.20;99.90
56322;DHT22;42227;6.376;-10.782;2024-03-08T06:12:37;28.10;99.90
56322;DHT22;42227;6.376;-10.782;2024-03-08T06:15:06;28.10;99.90
56322;DHT22;42227;6.376;-10.782;2024-03-08T06:21:57;28.30;99.90
56322;DHT22;42227;6.376;-10.782;2024-03-08T06:24:26;28.30;99.90
56322;DHT22;42227;6.376;-10.782;2024-03-08T06:26:54;28.30;99.90
56322;DHT22;42227;6.376;-10.782;2024-03-08T06:29:23;28.30;99.90
56322;DHT22;42227;6.376;-10.782;2024-03-08T06:31:51;28.30;99.90
56322;DHT22;42227;6.376;-10.782;2024-03-08T06:34:22;28.40;99.90
56322;DHT22;42227;6.376;-10.782;2024-03-08T06:36:50;28.50;99.90
56322;DHT22;42227;6.376;-10.782;2024-03-08T06:39:19;28.30;99.90
56322;DHT22;42227;6.376;-10.782;2024-03-08T06:41:47;28.40;99.90
56322;DHT22;42227;6.376;-10.782;2024-03-08T06:44:15;28.20;99.90
56322;DHT22;42227;6.376;-10.782;2024-03-08T06:46:44;28.20;99.90
56322;DHT22;42227;6.376;-10.782;2024-03-08T06:49:12;28.10;99.90
56322;DHT22;42227;6.376;-10.782;2024-03-08T06:51:40;27.80;99.90
56322;DHT22;42227;6.376;-10.782;2024-03-08T06:54:09;27.80;99.90
56322;DHT22;42227;6.376;-10.782;2024-03-08T06:56:37;27.80;99.90
56322;DHT22;42227;6.376;-10.782;2024-03-08T06:59:06;28.00;99.90
56322;DHT22;42227;6.376;-10.782;2024-03-08T07:01:36;28.20;99.90
56322;DHT22;42227;6.376;-10.782;2024-03-08T07:04:04;28.20;99.90
56322;DHT22;42227;6.376;-10.782;2024-03-08T07:06:33;28.20;99.90
56322;DHT22;42227;6.376;-10.782;2024-03-08T07:09:01;28.20;99.90
56322;DHT22;42227;6.376;-10.782;2024-03-08T07:11:30;28.20;99.90
56322;DHT22;42227;6.376;-10.782;2024-03-08T07:13:58;28.20;99.90
56322;DHT22;42227;6.376;-10.782;2024-03-08T07:16:27;28.20;99.90
56322;DHT22;42227;6.376;-10.782;2024-03-08T07:18:55;28.30;99.90
56322;DHT22;42227;6.376;-10.782;2024-03-08T07:21:24;28.10;99.90
56322;DHT22;42227;6.376;-10.782;2024-03-08T07:23:52;28.20;99.90
56322;DHT22;42227;6.376;-10.782;2024-03-08T07:26:21;28.20;99.90
56322;DHT22;42227;6.376;-10.782;2024-03-08T07:28:49;28.40;99.90
56322;DHT22;42227;6.376;-10.782;2024-03-08T07:31:18;28.50;99.90
56322;DHT22;42227;6.376;-10.782;2024-03-08T07:33:46;28.70;99.90
56322;DHT22;42227;6.376;-10.782;2024-03-08T07:36:14;28.70;95.50
56322;DHT22;42227;6.376;-10.782;2024-03-08T07:38:43;28.60;98.00
56322;DHT22;42227;6.376;-10.782;2024-03-08T07:41:11;28.70;95.90
56322;DHT22;42227;6.376;-10.782;2024-03-08T07:43:42;28.80;95.60
56322;DHT22;42227;6.376;-10.782;2024-03-08T07:46:10;29.00;92.60
56322;DHT22;42227;6.376;-10.782;2024-03-08T07:48:38;29.00;92.10
56322;DHT22;42227;6.376;-10.782;2024-03-08T07:51:07;29.10;92.30
56322;DHT22;42227;6.376;-10.782;2024-03-08T07:53:35;29.20;93.10
56322;DHT22;42227;6.376;-10.782;2024-03-08T07:56:04;29.40;82.40
56322;DHT22;42227;6.376;-10.782;2024-03-08T07:58:33;29.40;73.60
56322;DHT22;42227;6.376;-10.782;2024-03-08T08:01:02;29.50;75.00
56322;DHT22;42227;6.376;-10.782;2024-03-08T08:03:30;30.00;54.80
56322;DHT22;42227;6.376;-10.782;2024-03-08T08:05:59;30.30;35.60
56322;DHT22;42227;6.376;-10.782;2024-03-08T08:08:27;30.40;34.40
56322;DHT22;42227;6.376;-10.782;2024-03-08T08:10:55;30.80;18.80
56322;DHT22;42227;6.376;-10.782;2024-03-08T08:13:24;31.40;1.00
56322;DHT22;42227;6.376;-10.782;2024-03-08T08:15:52;32.10;1.00
56322;DHT22;42227;6.376;-10.782;2024-03-08T08:18:21;32.60;1.00
56322;DHT22;42227;6.376;-10.782;2024-03-08T08:20:49;32.90;1.00
56322;DHT22;42227;6.376;-10.782;2024-03-08T08:23:18;32.90;1.00
56322;DHT22;42227;6.376;-10.782;2024-03-08T08:25:47;32.90;1.00
56322;DHT22;42227;6.376;-10.782;2024-03-08T08:28:19;33.10;1.00
56322;DHT22;42227;6.376;-10.782;2024-03-08T08:30:47;33.60;1.00
56322;DHT22;42227;6.376;-10.782;2024-03-08T08:33:16;33.80;1.00
56322;DHT22;42227;6.376;-10.782;2024-03-08T08:35:44;33.40;1.00
56322;DHT22;42227;6.376;-10.782;2024-03-08T08:38:13;33.10;1.00
56322;DHT22;42227;6.376;-10.782;2024-03-08T08:40:41;33.50;1.00
56322;DHT22;42227;6.376;-10.782;2024-03-08T08:43:09;33.30;1.00
56322;DHT22;42227;6.376;-10.782;2024-03-08T08:45:38;33.80;1.00
56322;DHT22;42227;6.376;-10.782;2024-03-08T08:48:07;33.90;1.00
56322;DHT22;42227;6.376;-10.782;2024-03-08T08:50:35;33.70;1.00
56322;DHT22;42227;6.376;-10.782;2024-03-08T08:53:03;33.40;1.00
56322;DHT22;42227;6.376;-10.782;2024-03-08T08:55:32;33.50;1.00
56322;DHT22;42227;6.376;-10.782;2024-03-08T08:58:01;32.80;1.00
56322;DHT22;42227;6.376;-10.782;2024-03-08T09:00:29;32.40;1.00
56322;DHT22;42227;6.376;-10.782;2024-03-08T09:02:57;32.90;1.00
56322;DHT22;42227;6.376;-10.782;2024-03-08T09:05:26;33.80;1.00
56322;DHT22;42227;6.376;-10.782;2024-03-08T09:07:55;34.00;1.00
56322;DHT22;42227;6.376;-10.782;2024-03-08T09:10:24;33.70;1.00
56322;DHT22;42227;6.376;-10.782;2024-03-08T09:12:57;33.10;1.00
56322;DHT22;42227;6.376;-10.782;2024-03-08T09:15:26;33.20;1.00
56322;DHT22;42227;6.376;-10.782;2024-03-08T09:17:55;33.40;1.00
56322;DHT22;42227;6.376;-10.782;2024-03-08T09:20:23;33.90;1.00
56322;DHT22;42227;6.376;-10.782;2024-03-08T09:22:51;34.30;1.00
56322;DHT22;42227;6.376;-10.782;2024-03-08T09:25:20;33.40;1.00
56322;DHT22;42227;6.376;-10.782;2024-03-08T09:27:48;34.00;1.00
56322;DHT22;42227;6.376;-10.782;2024-03-08T09:30:17;34.30;1.00
56322;DHT22;42227;6.376;-10.782;2024-03-08T09:32:45;34.70;1.00
56322;DHT22;42227;6.376;-10.782;2024-03-08T09:35:14;33.40;1.00
56322;DHT22;42227;6.376;-10.782;2024-03-08T09:37:42;33.80;1.00
56322;DHT22;42227;6.376;-10.782;2024-03-08T09:40:10;34.30;1.00
56322;DHT22;42227;6.376;-10.782;2024-03-08T09:42:39;34.60;1.00
56322;DHT22;42227;6.376;-10.782;2024-03-08T09:45:11;34.80;99.90
56322;DHT22;42227;6.376;-10.782;2024-03-08T09:47:41;34.50;99.90
56322;DHT22;42227;6.376;-10.782;2024-03-08T09:50:11;34.10;1.00
56322;DHT22;42227;6.376;-10.782;2024-03-08T09:52:40;34.00;1.00
56322;DHT22;42227;6.376;-10.782;2024-03-08T09:55:10;33.70;99.90
56322;DHT22;42227;6.376;-10.782;2024-03-08T09:57:40;33.60;1.00
56322;DHT22;42227;6.376;-10.782;2024-03-08T10:00:08;33.10;1.00
56322;DHT22;42227;6.376;-10.782;2024-03-08T10:02:36;33.20;1.00
56322;DHT22;42227;6.376;-10.782;2024-03-08T10:05:05;32.80;1.00
56322;DHT22;42227;6.376;-10.782;2024-03-08T10:07:35;32.90;1.00
56322;DHT22;42227;6.376;-10.782;2024-03-08T10:10:04;32.90;1.00
56322;DHT22;42227;6.376;-10.782;2024-03-08T10:12:32;32.90;1.00
56322;DHT22;42227;6.376;-10.782;2024-03-08T10:15:01;32.70;1.00
56322;DHT22;42227;6.376;-10.782;2024-03-08T10:17:29;32.80;1.00
56322;DHT22;42227;6.376;-10.782;2024-03-08T10:19:58;32.70;1.00
56322;DHT22;42227;6.376;-10.782;2024-03-08T10:22:26;32.90;1.00
56322;DHT22;42227;6.376;-10.782;2024-03-08T10:24:55;33.00;1.00
56322;DHT22;42227;6.376;-10.782;2024-03-08T10:27:23;33.20;1.00
56322;DHT22;42227;6.376;-10.782;2024-03-08T10:29:52;33.10;1.00
56322;DHT22;42227;6.376;-10.782;2024-03-08T10:32:20;33.10;1.00
56322;DHT22;42227;6.376;-10.782;2024-03-08T10:34:48;33.30;1.00
56322;DHT22;42227;6.376;-10.782;2024-03-08T10:37:21;33.10;1.00
56322;DHT22;42227;6.376;-10.782;2024-03-08T10:40:03;33.10;1.00
56322;DHT22;42227;6.376;-10.782;2024-03-08T10:42:32;33.20;1.00
56322;DHT22;42227;6.376;-10.782;2024-03-08T10:45:31;33.10;1.00
56322;DHT22;42227;6.376;-10.782;2024-03-08T10:51:00;32.80;1.00
56322;DHT22;42227;6.376;-10.782;2024-03-08T10:53:30;32.90;1.00
56322;DHT22;42227;6.376;-10.782;2024-03-08T10:55:58;33.00;1.00
56322;DHT22;42227;6.376;-10.782;2024-03-08T10:58:28;33.40;1.00
56322;DHT22;42227;6.376;-10.782;2024-03-08T11:00:57;33.60;1.00
56322;DHT22;42227;6.376;-10.782;2024-03-08T11:06:15;33.70;1.00
56322;DHT22;42227;6.376;-10.782;2024-03-08T11:08:45;33.50;1.00
56322;DHT22;42227;6.376;-10.782;2024-03-08T11:11:43;33.50;1.00
56322;DHT22;42227;6.376;-10.782;2024-03-08T11:14:45;33.70;99.90
56322;DHT22;42227;6.376;-10.782;2024-03-08T11:17:14;33.80;1.00
56322;DHT22;42227;6.376;-10.782;2024-03-08T11:19:46;33.90;1.00
56322;DHT22;42227;6.376;-10.782;2024-03-08T11:22:29;34.10;1.00
56322;DHT22;42227;6.376;-10.782;2024-03-08T11:25:04;33.80;1.00
56322;DHT22;42227;6.376;-10.782;2024-03-08T11:27:33;34.00;99.90
56322;DHT22;42227;6.376;-10.782;2024-03-08T11:30:06;34.20;99.90
56322;DHT22;42227;6.376;-10.782;2024-03-08T11:32:35;34.40;99.90
56322;DHT22;42227;6.376;-10.782;2024-03-08T11:35:08;34.40;99.90
56322;DHT22;42227;6.376;-10.782;2024-03-08T11:37:46;34.20;99.90
56322;DHT22;42227;6.376;-10.782;2024-03-08T11:40:15;33.80;99.90
56322;DHT22;42227;6.376;-10.782;2024-03-08T11:42:47;33.50;99.90
56322;DHT22;42227;6.376;-10.782;2024-03-08T11:45:16;33.60;99.90
56322;DHT22;42227;6.376;-10.782;2024-03-08T11:47:45;33.70;99.90
56322;DHT22;42227;6.376;-10.782;2024-03-08T11:50:14;33.70;99.90
56322;DHT22;42227;6.376;-10.782;2024-03-08T11:52:44;33.90;99.90
56322;DHT22;42227;6.376;-10.782;2024-03-08T11:55:12;33.60;1.00
56322;DHT22;42227;6.376;-10.782;2024-03-08T11:57:41;33.30;1.00
56322;DHT22;42227;6.376;-10.782;2024-03-08T12:00:19;33.10;1.00
56322;DHT22;42227;6.376;-10.782;2024-03-08T12:03:01;33.10;1.00
56322;DHT22;42227;6.376;-10.782;2024-03-08T12:05:31;32.80;1.00
56322;DHT22;42227;6.376;-10.782;2024-03-08T12:08:00;33.20;1.00
56322;DHT22;42227;6.376;-10.782;2024-03-08T12:10:28;33.30;1.00
56322;DHT22;42227;6.376;-10.782;2024-03-08T12:12:58;33.30;1.00
56322;DHT22;42227;6.376;-10.782;2024-03-08T12:15:28;33.30;1.00
56322;DHT22;42227;6.376;-10.782;2024-03-08T12:17:57;33.40;1.00
56322;DHT22;42227;6.376;-10.782;2024-03-08T12:20:28;33.40;1.00
56322;DHT22;42227;6.376;-10.782;2024-03-08T12:22:58;33.50;1.00
56322;DHT22;42227;6.376;-10.782;2024-03-08T12:25:33;33.40;1.00
56322;DHT22;42227;6.376;-10.782;2024-03-08T12:28:12;33.40;1.00
56322;DHT22;42227;6.376;-10.782;2024-03-08T12:30:49;33.60;1.00
56322;DHT22;42227;6.376;-10.782;2024-03-08T12:33:18;33.80;1.00
56322;DHT22;42227;6.376;-10.782;2024-03-08T12:35:53;33.80;1.00
56322;DHT22;42227;6.376;-10.782;2024-03-08T12:38:24;33.80;1.00
56322;DHT22;42227;6.376;-10.782;2024-03-08T12:40:59;33.70;1.00
56322;DHT22;42227;6.376;-10.782;2024-03-08T12:43:28;33.70;1.00
56322;DHT22;42227;6.376;-10.782;2024-03-08T12:45:57;33.70;1.00
56322;DHT22;42227;6.376;-10.782;2024-03-08T12:48:25;33.70;1.00
56322;DHT22;42227;6.376;-10.782;2024-03-08T12:50:54;33.70;1.00
56322;DHT22;42227;6.376;-10.782;2024-03-08T12:53:23;33.60;1.00
56322;DHT22;42227;6.376;-10.782;2024-03-08T12:55:51;33.50;1.00
56322;DHT22;42227;6.376;-10.782;2024-03-08T12:58:20;33.50;1.00
56322;DHT22;42227;6.376;-10.782;2024-03-08T13:00:48;33.60;1.00
56322;DHT22;42227;6.376;-10.782;2024-03-08T13:03:21;33.60;1.00
56322;DHT22;42227;6.376;-10.782;2024-03-08T13:05:49;33.40;1.00
56322;DHT22;42227;6.376;-10.782;2024-03-08T13:08:17;33.40;1.00
56322;DHT22;42227;6.376;-10.782;2024-03-08T13:10:46;33.50;1.00
56322;DHT22;42227;6.376;-10.782;2024-03-08T13:13:14;33.40;1.00
56322;DHT22;42227;6.376;-10.782;2024-03-08T13:15:43;33.30;1.00
56322;DHT22;42227;6.376;-10.782;2024-03-08T13:18:11;33.40;1.00
56322;DHT22;42227;6.376;-10.782;2024-03-08T13:20:40;33.50;1.00
56322;DHT22;42227;6.376;-10.782;2024-03-08T13:23:15;33.60;1.00
56322;DHT22;42227;6.376;-10.782;2024-03-08T13:25:43;33.60;1.00
56322;DHT22;42227;6.376;-10.782;2024-03-08T13:28:12;33.70;1.00
56322;DHT22;42227;6.376;-10.782;2024-03-08T13:30:40;33.50;1.00
56322;DHT22;42227;6.376;-10.782;2024-03-08T13:33:08;33.40;1.00
56322;DHT22;42227;6.376;-10.782;2024-03-08T13:35:37;33.40;1.00
56322;DHT22;42227;6.376;-10.782;2024-03-08T13:38:05;33.50;1.00
56322;DHT22;42227;6.376;-10.782;2024-03-08T13:40:34;33.50;1.00
56322;DHT22;42227;6.376;-10.782;2024-03-08T13:43:02;33.30;1.00
56322;DHT22;42227;6.376;-10.782;2024-03-08T13:45:30;33.30;1.00
56322;DHT22;42227;6.376;-10.782;2024-03-08T13:47:59;33.40;1.00
56322;DHT22;42227;6.376;-10.782;2024-03-08T13:50:27;33.50;1.00
56322;DHT22;42227;6.376;-10.782;2024-03-08T13:52:56;33.60;1.00
56322;DHT22;42227;6.376;-10.782;2024-03-08T13:55:25;33.50;1.00
56322;DHT22;42227;6.376;-10.782;2024-03-08T13:57:53;33.50;1.00
56322;DHT22;42227;6.376;-10.782;2024-03-08T14:00:22;33.50;1.00
56322;DHT22;42227;6.376;-10.782;2024-03-08T14:02:50;33.50;1.00
56322;DHT22;42227;6.376;-10.782;2024-03-08T14:05:19;33.60;1.00
56322;DHT22;42227;6.376;-10.782;2024-03-08T14:07:47;33.70;1.00
56322;DHT22;42227;6.376;-10.782;2024-03-08T14:10:16;33.70;1.00
56322;DHT22;42227;6.376;-10.782;2024-03-08T14:12:44;33.60;1.00
56322;DHT22;42227;6.376;-10.782;2024-03-08T14:15:13;33.70;1.00
56322;DHT22;42227;6.376;-10.782;2024-03-08T14:17:41;33.60;1.00
56322;DHT22;42227;6.376;-10.782;2024-03-08T14:20:10;33.50;1.00
56322;DHT22;42227;6.376;-10.782;2024-03-08T14:22:39;33.50;1.00
56322;DHT22;42227;6.376;-10.782;2024-03-08T14:25:07;33.50;1.00
56322;DHT22;42227;6.376;-10.782;2024-03-08T14:27:36;33.40;1.00
56322;DHT22;42227;6.376;-10.782;2024-03-08T14:30:05;33.10;1.00
56322;DHT22;42227;6.376;-10.782;2024-03-08T14:32:33;33.10;1.00
56322;DHT22;42227;6.376;-10.782;2024-03-08T14:35:02;33.10;1.00
56322;DHT22;42227;6.376;-10.782;2024-03-08T14:37:30;33.00;1.00
56322;DHT22;42227;6.376;-10.782;2024-03-08T14:39:59;32.90;1.00
56322;DHT22;42227;6.376;-10.782;2024-03-08T14:42:27;33.00;1.00
56322;DHT22;42227;6.376;-10.782;2024-03-08T14:44:55;33.00;1.00
56322;DHT22;42227;6.376;-10.782;2024-03-08T14:47:24;32.90;1.00
56322;DHT22;42227;6.376;-10.782;2024-03-08T14:49:52;32.80;1.00
56322;DHT22;42227;6.376;-10.782;2024-03-08T14:52:20;32.80;1.00
56322;DHT22;42227;6.376;-10.782;2024-03-08T14:54:49;32.80;1.00
56322;DHT22;42227;6.376;-10.782;2024-03-08T14:57:17;32.70;1.00
56322;DHT22;42227;6.376;-10.782;2024-03-08T14:59:45;32.70;1.00
56322;DHT22;42227;6.376;-10.782;2024-03-08T15:02:14;32.40;1.00
56322;DHT22;42227;6.376;-10.782;2024-03-08T15:04:42;32.50;1.00
56322;DHT22;42227;6.376;-10.782;2024-03-08T15:07:11;32.50;1.00
56322;DHT22;42227;6.376;-10.782;2024-03-08T15:09:39;32.60;1.00
56322;DHT22;42227;6.376;-10.782;2024-03-08T15:12:09;32.50;1.00
56322;DHT22;42227;6.376;-10.782;2024-03-08T15:14:40;32.50;1.00
56322;DHT22;42227;6.376;-10.782;2024-03-08T15:17:10;32.50;1.00
56322;DHT22;42227;6.376;-10.782;2024-03-08T15:19:38;32.50;1.00
56322;DHT22;42227;6.376;-10.782;2024-03-08T15:22:06;32.40;1.00
56322;DHT22;42227;6.376;-10.782;2024-03-08T15:24:35;32.30;1.00
56322;DHT22;42227;6.376;-10.782;2024-03-08T15:27:03;32.40;1.00
56322;DHT22;42227;6.376;-10.782;2024-03-08T15:29:31;32.40;1.00
56322;DHT22;42227;6.376;-10.782;2024-03-08T15:32:00;32.40;1.00
56322;DHT22;42227;6.376;-10.782;2024-03-08T15:34:28;32.40;1.00
56322;DHT22;42227;6.376;-10.782;2024-03-08T15:36:57;32.40;1.00
56322;DHT22;42227;6.376;-10.782;2024-03-08T15:39:25;32.40;1.00
56322;DHT22;42227;6.376;-10.782;2024-03-08T15:41:54;32.40;1.00
56322;DHT22;42227;6.376;-10.782;2024-03-08T15:44:22;32.40;1.00